createdAt,value
2023-04-02T00:00:09.019Z,6.65
2023-04-02T00:02:35.492Z,5.97
2023-04-02T00:05:01.957Z,6.30
2023-04-02T00:07:28.400Z,5.82
2023-04-02T00:09:54.825Z,5.95
2023-04-02T00:12:21.223Z,7.35
2023-04-02T00:14:47.644Z,5.57
2023-04-02T00:17:14.102Z,4.90
2023-04-02T00:19:40.494Z,7.95
2023-04-02T00:22:06.848Z,7.30
2023-04-02T00:24:33.230Z,5.55
2023-04-02T00:26:59.682Z,7.20
2023-04-02T00:29:26.074Z,9.18
2023-04-02T00:31:52.473Z,8.15
2023-04-02T00:34:18.947Z,7.93
2023-04-02T00:36:45.371Z,8.95
2023-04-02T00:39:11.820Z,7.00
2023-04-02T00:41:38.238Z,8.15
2023-04-02T00:44:04.698Z,6.18
2023-04-02T00:46:31.184Z,7.03
2023-04-02T00:48:57.811Z,8.45
2023-04-02T00:51:24.269Z,7.60
2023-04-02T00:53:50.704Z,8.90
2023-04-02T00:56:17.124Z,6.97
2023-04-02T00:58:43.525Z,7.75
2023-04-02T01:01:09.939Z,7.75
2023-04-02T01:03:37.297Z,6.82
2023-04-02T01:06:04.298Z,7.35
2023-04-02T01:08:30.704Z,7.60
2023-04-02T01:10:57.112Z,7.07
2023-04-02T01:13:23.520Z,7.80
2023-04-02T01:15:49.983Z,7.47
2023-04-02T01:18:16.438Z,8.38
2023-04-02T01:20:42.891Z,8.25
2023-04-02T01:23:09.264Z,6.05
2023-04-02T01:25:35.969Z,8.75
2023-04-02T01:28:02.525Z,8.43
2023-04-02T01:30:29.134Z,8.98
2023-04-02T01:32:55.622Z,8.23
2023-04-02T01:35:22.115Z,9.15
2023-04-02T01:37:48.561Z,8.85
2023-04-02T01:40:14.983Z,8.45
2023-04-02T01:42:41.456Z,7.88
2023-04-02T01:45:07.925Z,8.35
2023-04-02T01:47:34.362Z,9.57
2023-04-02T01:50:00.825Z,8.73
2023-04-02T01:52:27.298Z,7.70
2023-04-02T01:54:53.702Z,7.85
2023-04-02T01:57:20.208Z,7.28
2023-04-02T01:59:46.641Z,9.82
2023-04-02T02:02:13.171Z,7.30
2023-04-02T02:04:39.603Z,7.50
2023-04-02T02:07:06.064Z,7.38
2023-04-02T02:09:32.447Z,6.80
2023-04-02T02:11:58.839Z,8.20
2023-04-02T02:14:25.268Z,7.32
2023-04-02T02:16:51.684Z,6.55
2023-04-02T02:19:18.096Z,7.68
2023-04-02T02:21:44.536Z,7.00
2023-04-02T02:24:10.978Z,6.28
2023-04-02T02:26:37.364Z,6.18
2023-04-02T02:29:03.789Z,9.77
2023-04-02T02:31:30.235Z,8.73
2023-04-02T02:33:56.725Z,7.65
2023-04-02T02:36:23.173Z,7.80
2023-04-02T02:38:49.583Z,11.18
2023-04-02T02:41:15.989Z,10.55
2023-04-02T02:43:42.364Z,10.07
2023-04-02T02:46:08.799Z,8.45
2023-04-02T02:48:35.319Z,10.15
2023-04-02T02:51:01.707Z,8.50
2023-04-02T02:53:28.167Z,9.48
2023-04-02T02:55:54.562Z,8.75
2023-04-02T02:58:21.006Z,9.18
2023-04-02T03:00:47.435Z,8.52
2023-04-02T03:03:13.877Z,6.97
2023-04-02T03:05:40.378Z,6.35
2023-04-02T03:08:06.832Z,7.40
2023-04-02T03:10:33.240Z,6.90
2023-04-02T03:12:59.657Z,7.20
2023-04-02T03:15:26.143Z,7.13
2023-04-02T03:17:52.710Z,9.15
2023-04-02T03:20:19.142Z,8.32
2023-04-02T03:22:45.588Z,9.45
2023-04-02T03:25:11.976Z,8.35
2023-04-02T03:27:38.413Z,6.78
2023-04-02T03:30:04.896Z,5.93
2023-04-02T03:32:31.418Z,6.38
2023-04-02T03:34:57.914Z,5.03
2023-04-02T03:37:24.429Z,5.63
2023-04-02T03:39:50.841Z,4.95
2023-04-02T03:42:17.286Z,5.65
2023-04-02T03:44:43.718Z,6.45
2023-04-02T03:47:10.100Z,4.82
2023-04-02T03:49:36.536Z,7.13
2023-04-02T03:52:02.983Z,4.45
2023-04-02T03:54:29.377Z,7.55
2023-04-02T03:56:55.865Z,4.57
2023-04-02T03:59:22.300Z,4.07
2023-04-02T04:01:48.791Z,3.92
2023-04-02T04:04:15.371Z,3.55
2023-04-02T04:06:41.912Z,4.45
2023-04-02T04:09:08.300Z,3.67
2023-04-02T04:11:34.756Z,3.92
2023-04-02T04:14:01.130Z,4.10
2023-04-02T04:16:27.556Z,5.10
2023-04-02T04:18:54.597Z,4.75
2023-04-02T04:21:21.025Z,4.63
2023-04-02T04:23:47.457Z,3.15
2023-04-02T04:26:13.903Z,2.67
2023-04-02T04:28:40.284Z,3.30
2023-04-02T04:31:06.713Z,3.53
2023-04-02T04:33:33.163Z,5.20
2023-04-02T04:35:59.632Z,5.85
2023-04-02T04:38:26.090Z,2.55
2023-04-02T04:40:52.464Z,4.40
2023-04-02T04:43:18.868Z,2.78
2023-04-02T04:45:45.278Z,4.20
2023-04-02T04:48:11.682Z,3.25
2023-04-02T04:50:38.095Z,3.83
2023-04-02T04:53:04.499Z,4.28
2023-04-02T04:55:30.910Z,5.07
2023-04-02T04:57:57.316Z,2.10
2023-04-02T05:00:23.811Z,2.92
2023-04-02T05:02:50.261Z,4.07
2023-04-02T05:05:16.765Z,3.20
2023-04-02T05:07:43.164Z,3.67
2023-04-02T05:10:09.622Z,4.32
2023-04-02T05:12:36.021Z,4.32
2023-04-02T05:15:02.389Z,5.00
2023-04-02T05:17:28.821Z,4.63
2023-04-02T05:19:55.346Z,3.85
2023-04-02T05:22:21.756Z,2.97
2023-04-02T05:24:48.163Z,3.13
2023-04-02T05:27:14.592Z,3.10
2023-04-02T05:29:41.026Z,4.28
2023-04-02T05:32:07.423Z,2.70
2023-04-02T05:34:33.803Z,1.70
2023-04-02T05:37:00.232Z,4.07
2023-04-02T05:39:26.627Z,2.88
2023-04-02T05:41:53.040Z,3.55
2023-04-02T05:44:19.439Z,3.28
2023-04-02T05:46:45.973Z,4.00
2023-04-02T05:49:12.400Z,4.32
2023-04-02T05:51:38.792Z,2.92
2023-04-02T05:54:05.217Z,5.25
2023-04-02T05:56:31.632Z,3.92
2023-04-02T05:58:58.231Z,4.38
2023-04-02T06:01:24.706Z,5.93
2023-04-02T06:03:51.315Z,5.47
2023-04-02T06:06:17.783Z,7.45
2023-04-02T06:08:44.210Z,4.82
2023-04-02T06:11:10.642Z,5.05
2023-04-02T06:13:37.026Z,4.68
2023-04-02T06:16:03.463Z,3.33
2023-04-02T06:18:29.892Z,4.70
2023-04-02T06:20:56.310Z,3.92
2023-04-02T06:23:22.746Z,5.45
2023-04-02T06:25:49.229Z,5.53
2023-04-02T06:28:15.658Z,5.15
2023-04-02T06:30:42.106Z,6.63
2023-04-02T06:33:08.599Z,5.22
2023-04-02T06:35:35.262Z,4.45
2023-04-02T06:38:01.960Z,4.85
2023-04-02T06:40:28.454Z,5.85
2023-04-02T06:42:54.860Z,4.03
2023-04-02T06:45:21.311Z,5.43
2023-04-02T06:47:47.857Z,5.38
2023-04-02T06:50:14.297Z,5.43
2023-04-02T06:52:40.753Z,4.72
2023-04-02T06:55:07.186Z,4.80
2023-04-02T06:57:33.689Z,4.60
2023-04-02T07:00:00.198Z,4.45
2023-04-02T07:02:26.627Z,5.55
2023-04-02T07:04:53.189Z,4.97
2023-04-02T07:07:19.678Z,5.53
2023-04-02T07:09:46.153Z,5.22
2023-04-02T07:12:12.646Z,4.75
2023-04-02T07:14:39.081Z,5.53
2023-04-02T07:17:05.530Z,3.30
2023-04-02T07:19:32.005Z,2.95
2023-04-02T07:21:58.556Z,4.97
2023-04-02T07:24:25.040Z,3.13
2023-04-02T07:26:51.445Z,4.93
2023-04-02T07:29:17.887Z,4.15
2023-04-02T07:31:44.406Z,4.32
2023-04-02T07:34:10.914Z,5.30
2023-04-02T07:36:37.360Z,5.25
2023-04-02T07:39:03.874Z,3.42
2023-04-02T07:41:30.289Z,5.03
2023-04-02T07:43:56.696Z,4.97
2023-04-02T07:46:23.143Z,3.90
2023-04-02T07:48:49.614Z,7.55
2023-04-02T07:51:16.060Z,3.38
2023-04-02T07:53:42.508Z,5.72
2023-04-02T07:56:09.082Z,4.93
2023-04-02T07:58:35.488Z,5.07
2023-04-02T08:01:02.177Z,3.03
2023-04-02T08:03:29.064Z,2.95
2023-04-02T08:05:55.549Z,4.78
2023-04-02T08:08:21.985Z,3.42
2023-04-02T08:10:48.441Z,3.85
2023-04-02T08:13:14.906Z,5.55
2023-04-02T08:15:41.345Z,3.47
2023-04-02T08:18:07.842Z,3.05
2023-04-02T08:20:34.374Z,3.03
2023-04-02T08:23:00.821Z,3.20
2023-04-02T08:25:27.211Z,3.78
2023-04-02T08:27:53.615Z,5.38
2023-04-02T08:30:20.123Z,5.50
2023-04-02T08:32:46.562Z,6.38
2023-04-02T08:35:13.041Z,3.20
2023-04-02T08:37:39.513Z,3.65
2023-04-02T08:40:05.900Z,3.85
2023-04-02T08:42:32.669Z,4.05
2023-04-02T08:44:59.114Z,2.92
2023-04-02T08:47:25.534Z,2.17
2023-04-02T08:49:51.944Z,3.03
2023-04-02T08:52:18.406Z,4.72
2023-04-02T08:54:44.845Z,3.60
2023-04-02T08:57:11.340Z,3.67
2023-04-02T08:59:37.810Z,4.68
2023-04-02T09:02:04.285Z,5.53
2023-04-02T09:04:30.828Z,5.22
2023-04-02T09:06:57.301Z,4.13
2023-04-02T09:09:23.789Z,4.03
2023-04-02T09:11:50.272Z,3.95
2023-04-02T09:14:16.680Z,3.47
2023-04-02T09:16:43.052Z,3.78
2023-04-02T09:19:09.470Z,3.40
2023-04-02T09:21:35.935Z,4.82
2023-04-02T09:24:03.959Z,4.07
2023-04-02T09:26:31.114Z,3.53
2023-04-02T09:28:57.558Z,3.03
2023-04-02T09:31:24.192Z,3.30
2023-04-02T09:33:50.671Z,4.03
2023-04-02T09:36:17.174Z,4.90
2023-04-02T09:38:43.608Z,2.53
2023-04-02T09:41:10.033Z,3.33
2023-04-02T09:43:36.445Z,4.05
2023-04-02T09:46:02.934Z,2.63
2023-04-02T09:48:29.313Z,2.65
2023-04-02T09:50:55.702Z,3.10
2023-04-02T09:53:23.542Z,2.10
2023-04-02T09:55:50.042Z,2.78
2023-04-02T09:58:16.503Z,3.50
2023-04-02T10:00:43.062Z,3.35
2023-04-02T10:03:09.620Z,3.50
2023-04-02T10:08:05.521Z,3.30
2023-04-02T10:10:32.038Z,3.50
2023-04-02T10:12:58.450Z,2.50
2023-04-02T10:15:24.842Z,3.38
2023-04-02T10:17:51.374Z,2.28
2023-04-02T10:20:17.845Z,2.97
2023-04-02T10:22:44.282Z,2.65
2023-04-02T10:25:10.725Z,2.97
2023-04-02T10:27:37.181Z,3.20
2023-04-02T10:30:03.887Z,2.75
2023-04-02T10:32:30.447Z,3.22
2023-04-02T10:34:56.864Z,3.03
2023-04-02T10:37:23.289Z,2.30
2023-04-02T10:39:49.747Z,5.00
2023-04-02T10:42:16.222Z,2.38
2023-04-02T10:44:42.636Z,2.30
2023-04-02T10:47:09.040Z,2.70
2023-04-02T10:49:35.467Z,2.97
2023-04-02T10:52:01.901Z,1.92
2023-04-02T10:54:28.316Z,1.60
2023-04-02T10:56:54.738Z,3.33
2023-04-02T10:59:21.208Z,3.42
2023-04-02T11:01:47.654Z,3.05
2023-04-02T11:04:14.344Z,2.45
2023-04-02T11:06:40.777Z,2.53
2023-04-02T11:09:07.241Z,4.05
2023-04-02T11:11:33.690Z,1.60
2023-04-02T11:14:00.164Z,3.55
2023-04-02T11:16:26.641Z,2.75
2023-04-02T11:18:53.073Z,1.48
2023-04-02T11:21:19.501Z,3.08
2023-04-02T11:23:45.948Z,2.65
2023-04-02T11:26:12.324Z,2.50
2023-04-02T11:28:38.696Z,2.58
2023-04-02T11:31:05.258Z,2.95
2023-04-02T11:33:38.069Z,1.60
2023-04-02T11:36:05.763Z,3.08
2023-04-02T11:38:32.348Z,2.13
2023-04-02T11:40:59.101Z,2.20
2023-04-02T11:43:25.543Z,3.20
2023-04-02T11:45:53.355Z,3.38
2023-04-02T11:48:20.071Z,3.08
2023-04-02T11:50:46.782Z,1.63
2023-04-02T11:53:13.310Z,1.65
2023-04-02T11:55:39.979Z,2.88
2023-04-02T11:58:06.504Z,3.63
2023-04-02T12:00:33.014Z,3.40
2023-04-02T12:02:59.779Z,2.97
2023-04-02T12:05:26.391Z,3.70
2023-04-02T12:07:52.905Z,3.00
2023-04-02T12:10:19.388Z,2.53
2023-04-02T12:12:45.800Z,1.23
2023-04-02T12:15:12.225Z,3.58
2023-04-02T12:17:38.653Z,2.78
2023-04-02T12:20:08.623Z,2.85
2023-04-02T12:22:35.034Z,2.35
2023-04-02T12:25:01.465Z,2.38
2023-04-02T12:27:28.109Z,1.70
2023-04-02T12:29:54.622Z,1.52
2023-04-02T12:32:21.064Z,1.58
2023-04-02T12:34:47.510Z,2.03
2023-04-02T12:37:13.883Z,2.08
2023-04-02T12:39:40.293Z,2.00
2023-04-02T12:42:06.673Z,2.58
2023-04-02T12:44:33.095Z,1.50
2023-04-02T12:46:59.535Z,2.78
2023-04-02T12:49:25.929Z,2.65
2023-04-02T12:51:52.381Z,1.55
2023-04-02T12:54:18.842Z,1.10
2023-04-02T12:56:45.270Z,2.30
2023-04-02T12:59:11.703Z,1.80
2023-04-02T13:01:38.174Z,1.58
2023-04-02T13:04:04.733Z,2.45
2023-04-02T13:06:31.266Z,2.90
2023-04-02T13:08:57.800Z,1.70
2023-04-02T13:11:24.269Z,1.77
2023-04-02T13:13:50.723Z,1.77
2023-04-02T13:16:17.348Z,1.65
2023-04-02T13:18:43.859Z,2.47
2023-04-02T13:21:10.316Z,2.05
2023-04-02T13:23:36.752Z,1.30
2023-04-02T13:26:03.210Z,2.03
2023-04-02T13:28:29.616Z,3.30
2023-04-02T13:30:56.074Z,2.47
2023-04-02T13:33:22.546Z,1.92
2023-04-02T13:35:49.007Z,2.53
2023-04-02T13:38:15.429Z,1.75
2023-04-02T13:40:41.862Z,2.05
2023-04-02T13:43:08.298Z,1.17
2023-04-02T13:45:34.717Z,1.80
2023-04-02T13:48:01.371Z,3.33
2023-04-02T13:50:28.193Z,2.15
2023-04-02T13:52:54.591Z,1.58
2023-04-02T13:55:21.023Z,2.70
2023-04-02T13:57:47.440Z,1.58
2023-04-02T14:00:13.919Z,2.55
2023-04-02T14:02:40.383Z,1.00
2023-04-02T14:05:06.831Z,2.70
2023-04-02T14:07:33.282Z,1.63
2023-04-02T14:09:59.753Z,3.35
2023-04-02T14:12:26.205Z,1.98
2023-04-02T14:14:52.642Z,1.67
2023-04-02T14:17:19.117Z,2.50
2023-04-02T14:19:45.585Z,2.28
2023-04-02T14:22:11.991Z,4.13
2023-04-02T14:24:38.425Z,2.03
2023-04-02T14:27:04.830Z,2.90
2023-04-02T14:29:31.211Z,2.63
2023-04-02T14:31:57.597Z,1.35
2023-04-02T14:34:24.028Z,1.90
2023-04-02T14:36:50.476Z,1.90
2023-04-02T14:39:16.862Z,2.10
2023-04-02T14:41:43.266Z,1.35
2023-04-02T14:44:09.663Z,1.10
2023-04-02T14:46:37.512Z,1.05
2023-04-02T14:49:04.205Z,0.90
2023-04-02T14:51:30.617Z,1.65
2023-04-02T14:53:56.995Z,3.05
2023-04-02T14:56:23.464Z,1.42
2023-04-02T14:58:49.888Z,1.45
2023-04-02T15:01:16.365Z,1.20
2023-04-02T15:03:42.838Z,1.05
2023-04-02T15:06:09.279Z,1.83
2023-04-02T15:08:35.732Z,2.03
2023-04-02T15:11:04.925Z,1.85
2023-04-02T15:13:32.493Z,1.63
2023-04-02T15:15:59.158Z,2.25
2023-04-02T15:18:25.649Z,1.70
2023-04-02T15:20:52.085Z,1.63
2023-04-02T15:23:18.510Z,2.15
2023-04-02T15:25:44.907Z,1.45
2023-04-02T15:28:11.374Z,2.08
2023-04-02T15:30:38.028Z,2.55
2023-04-02T15:33:04.721Z,1.10
2023-04-02T15:35:31.148Z,0.98
2023-04-02T15:37:57.650Z,1.30
2023-04-02T15:40:24.050Z,2.03
2023-04-02T15:42:50.485Z,2.15
2023-04-02T15:45:16.915Z,1.67
2023-04-02T15:47:43.387Z,3.15
2023-04-02T15:50:09.838Z,1.10
2023-04-02T15:52:36.278Z,1.90
2023-04-02T15:55:02.859Z,1.05
2023-04-02T15:57:29.339Z,1.88
2023-04-02T15:59:55.785Z,1.63
2023-04-02T16:02:22.162Z,2.38
2023-04-02T16:04:48.602Z,1.98
2023-04-02T16:07:15.024Z,1.40
2023-04-02T16:09:41.465Z,1.65
2023-04-02T16:12:07.902Z,1.15
2023-04-02T16:14:34.368Z,1.83
2023-04-02T16:17:03.791Z,1.75
2023-04-02T16:19:34.640Z,1.48
2023-04-02T16:22:01.083Z,1.40
2023-04-02T16:24:27.635Z,1.08
2023-04-02T16:26:54.159Z,1.45
2023-04-02T16:29:20.585Z,1.85
2023-04-02T16:31:46.975Z,1.00
2023-04-02T16:34:13.435Z,2.17
2023-04-02T16:36:39.910Z,2.00
2023-04-02T16:39:06.463Z,1.27
2023-04-02T16:41:32.905Z,2.63
2023-04-02T16:43:59.366Z,2.17
2023-04-02T16:46:38.172Z,1.08
2023-04-02T16:49:06.569Z,0.98
2023-04-02T16:51:33.038Z,0.70
2023-04-02T16:54:01.977Z,1.20
2023-04-02T16:56:29.126Z,1.02
2023-04-02T16:58:55.513Z,1.00
2023-04-02T17:01:21.991Z,1.48
2023-04-02T17:03:48.569Z,1.15
2023-04-02T17:06:15.010Z,2.65
2023-04-02T17:08:41.486Z,2.72
2023-04-02T17:11:07.965Z,2.83
2023-04-02T17:13:34.353Z,2.00
2023-04-02T17:16:00.800Z,1.83
2023-04-02T17:18:27.301Z,1.17
2023-04-02T17:20:53.744Z,1.25
2023-04-02T17:23:20.188Z,1.45
2023-04-02T17:25:46.645Z,1.05
2023-04-02T17:28:13.105Z,2.15
2023-04-02T17:30:39.539Z,1.35
2023-04-02T17:33:06.050Z,1.77
2023-04-02T17:35:32.822Z,1.42
2023-04-02T17:37:59.279Z,1.63
2023-04-02T17:40:25.689Z,1.58
2023-04-02T17:42:52.139Z,0.80
2023-04-02T17:45:18.562Z,1.85
2023-04-02T17:47:45.030Z,1.85
2023-04-02T17:50:11.464Z,1.60
2023-04-02T17:52:37.837Z,2.17
2023-04-02T17:55:04.277Z,1.88
2023-04-02T17:57:30.667Z,1.48
2023-04-02T17:59:57.152Z,1.90
2023-04-02T18:02:23.819Z,0.70
2023-04-02T18:04:50.299Z,1.65
2023-04-02T18:07:16.722Z,2.05
2023-04-02T18:09:43.210Z,1.02
2023-04-02T18:12:09.660Z,1.13
2023-04-02T18:14:36.075Z,1.30
2023-04-02T18:17:02.788Z,1.60
2023-04-02T18:19:31.223Z,1.77
2023-04-02T18:21:58.717Z,1.13
2023-04-02T18:24:25.170Z,1.90
2023-04-02T18:26:51.620Z,1.45
2023-04-02T18:29:18.008Z,1.55
2023-04-02T18:31:44.374Z,2.40
2023-04-02T18:34:10.798Z,1.13
2023-04-02T18:36:37.192Z,1.27
2023-04-02T18:39:03.794Z,0.57
2023-04-02T18:41:30.260Z,2.22
2023-04-02T18:43:57.512Z,1.02
2023-04-02T18:46:24.080Z,0.60
2023-04-02T18:48:50.525Z,0.93
2023-04-02T18:51:16.915Z,0.95
2023-04-02T18:53:43.374Z,1.65
2023-04-02T18:56:11.779Z,1.10
2023-04-02T18:58:38.737Z,1.38
2023-04-02T19:01:05.321Z,1.00
2023-04-02T19:03:31.815Z,2.67
2023-04-02T19:05:58.440Z,0.65
2023-04-02T19:08:24.829Z,1.67
2023-04-02T19:10:51.266Z,1.50
2023-04-02T19:13:17.705Z,1.50
2023-04-02T19:15:44.143Z,1.42
2023-04-02T19:18:10.631Z,1.17
2023-04-02T19:20:37.093Z,1.98
2023-04-02T19:23:03.871Z,1.48
2023-04-02T19:25:30.272Z,1.60
2023-04-02T19:27:56.710Z,0.93
2023-04-02T19:30:23.098Z,1.55
2023-04-02T19:32:49.600Z,1.50
2023-04-02T19:35:16.122Z,1.40
2023-04-02T19:37:42.601Z,2.42
2023-04-02T19:40:09.068Z,1.25
2023-04-02T19:42:35.549Z,1.05
2023-04-02T19:45:02.032Z,1.00
2023-04-02T19:47:28.612Z,2.45
2023-04-02T19:49:55.110Z,1.58
2023-04-02T19:52:21.540Z,1.30
2023-04-02T19:54:47.972Z,1.80
2023-04-02T19:57:14.437Z,2.22
2023-04-02T19:59:40.836Z,2.08
2023-04-02T20:02:07.278Z,2.13
2023-04-02T20:04:33.913Z,1.73
2023-04-02T20:07:00.453Z,1.60
2023-04-02T20:09:26.874Z,1.63
2023-04-02T20:11:53.304Z,1.38
2023-04-02T20:14:19.761Z,1.90
2023-04-02T20:16:46.256Z,1.63
2023-04-02T20:19:12.688Z,4.95
2023-04-02T20:21:39.193Z,1.48
2023-04-02T20:24:05.677Z,3.88
2023-04-02T20:26:32.104Z,1.17
2023-04-02T20:28:58.667Z,1.65
2023-04-02T20:31:25.141Z,2.50
2023-04-02T20:33:51.737Z,1.98
2023-04-02T20:36:18.272Z,2.35
2023-04-02T20:38:45.910Z,2.33
2023-04-02T20:41:12.376Z,2.15
2023-04-02T20:43:38.857Z,3.05
2023-04-02T20:46:05.656Z,1.92
2023-04-02T20:48:32.243Z,2.20
2023-04-02T20:50:58.692Z,2.28
2023-04-02T20:53:25.118Z,2.53
2023-04-02T20:55:51.563Z,2.65
2023-04-02T20:58:18.011Z,1.63
2023-04-02T21:00:44.423Z,2.17
2023-04-02T21:03:10.837Z,2.78
2023-04-02T21:05:37.347Z,1.70
2023-04-02T21:08:03.890Z,2.80
2023-04-02T21:10:30.363Z,2.53
2023-04-02T21:12:56.792Z,3.03
2023-04-02T21:15:23.189Z,1.83
2023-04-02T21:17:49.694Z,1.58
2023-04-02T21:20:16.227Z,0.85
2023-04-02T21:22:42.664Z,1.60
2023-04-02T21:25:09.083Z,1.73
2023-04-02T21:27:35.464Z,1.88
2023-04-02T21:30:01.922Z,2.28
2023-04-02T21:32:28.625Z,1.50
2023-04-02T21:34:55.118Z,1.00
2023-04-02T21:37:21.576Z,1.17
2023-04-02T21:39:48.046Z,1.90
2023-04-02T21:42:14.533Z,1.88
2023-04-02T21:44:41.004Z,1.75
2023-04-02T21:47:07.441Z,1.83
2023-04-02T21:49:33.940Z,1.23
2023-04-02T21:52:00.407Z,1.48
2023-04-02T21:54:26.888Z,0.75
2023-04-02T21:56:53.438Z,1.65
2023-04-02T21:59:19.889Z,1.70
2023-04-02T22:01:46.377Z,1.90
2023-04-02T22:04:12.986Z,2.47
2023-04-02T22:06:39.446Z,2.20
2023-04-02T22:09:05.845Z,2.17
2023-04-02T22:11:32.311Z,1.55
2023-04-02T22:13:58.860Z,1.38
2023-04-02T22:16:25.331Z,1.77
2023-04-02T22:18:51.765Z,1.85
2023-04-02T22:21:18.176Z,2.90
2023-04-02T22:23:44.615Z,1.85
2023-04-02T22:26:11.033Z,1.38
2023-04-02T22:28:37.505Z,1.65
2023-04-02T22:31:04.002Z,1.83
2023-04-02T22:33:30.535Z,1.45
2023-04-02T22:35:57.016Z,1.75
2023-04-02T22:38:23.522Z,2.25
2023-04-02T22:40:49.995Z,0.98
2023-04-02T22:43:16.439Z,1.25
2023-04-02T22:45:42.926Z,1.85
2023-04-02T22:48:09.421Z,2.10
2023-04-02T22:50:36.047Z,1.98
2023-04-02T22:53:02.862Z,2.03
2023-04-02T22:55:29.249Z,1.38
2023-04-02T22:57:55.658Z,2.67
2023-04-02T23:00:22.066Z,2.33
2023-04-02T23:02:48.554Z,1.35
2023-04-02T23:05:15.008Z,2.58
2023-04-02T23:07:41.504Z,1.67
2023-04-02T23:10:07.933Z,3.40
2023-04-02T23:12:34.354Z,1.83
2023-04-02T23:15:00.747Z,2.33
2023-04-02T23:17:27.198Z,2.10
2023-04-02T23:19:53.688Z,2.10
2023-04-02T23:22:20.148Z,1.55
2023-04-02T23:24:46.629Z,2.75
2023-04-02T23:27:13.093Z,2.03
2023-04-02T23:29:39.551Z,1.20
2023-04-02T23:32:06.059Z,1.20
2023-04-02T23:34:32.687Z,2.13
2023-04-02T23:36:59.256Z,1.00
2023-04-02T23:39:25.704Z,1.88
2023-04-02T23:41:52.158Z,1.55
2023-04-02T23:44:18.732Z,1.73
2023-04-02T23:46:45.232Z,0.90
2023-04-02T23:49:11.720Z,1.58
2023-04-02T23:51:38.093Z,1.75
2023-04-02T23:54:04.535Z,1.42
2023-04-02T23:56:31.000Z,1.52
2023-04-02T23:58:57.794Z,2.72
